sensor_id;sensor_type;location;lat;lon;timestamp;P1;durP1;ratioP1;P2;durP2;ratioP2
78338;SDS011;67614;47.406;18.784;2023-02-17T00:00:12;105.60;;;97.90;;
78338;SDS011;67614;47.406;18.784;2023-02-17T00:00:43;105.23;;;96.63;;
78338;SDS011;67614;47.406;18.784;2023-02-17T00:01:53;108.43;;;100.20;;
78338;SDS011;67614;47.406;18.784;2023-02-17T00:02:23;109.90;;;101.63;;
78338;SDS011;67614;47.406;18.784;2023-02-17T00:02:54;109.43;;;101.20;;
78338;SDS011;67614;47.406;18.784;2023-02-17T00:03:26;102.70;;;96.23;;
78338;SDS011;67614;47.406;18.784;2023-02-17T00:03:57;106.10;;;98.57;;
78338;SDS011;67614;47.406;18.784;2023-02-17T00:04:28;102.97;;;96.07;;
78338;SDS011;67614;47.406;18.784;2023-02-17T00:04:59;103.37;;;96.47;;
78338;SDS011;67614;47.406;18.784;2023-02-17T00:05:29;108.33;;;100.17;;
78338;SDS011;67614;47.406;18.784;2023-02-17T00:06:04;108.73;;;100.60;;
78338;SDS011;67614;47.406;18.784;2023-02-17T00:06:35;112.70;;;103.13;;
78338;SDS011;67614;47.406;18.784;2023-02-17T00:07:05;111.33;;;102.80;;
78338;SDS011;67614;47.406;18.784;2023-02-17T00:07:36;108.53;;;100.63;;
78338;SDS011;67614;47.406;18.784;2023-02-17T00:08:07;103.30;;;96.83;;
78338;SDS011;67614;47.406;18.784;2023-02-17T00:08:37;105.00;;;97.73;;
78338;SDS011;67614;47.406;18.784;2023-02-17T00:09:07;103.77;;;97.67;;
78338;SDS011;67614;47.406;18.784;2023-02-17T00:09:38;103.50;;;96.90;;
78338;SDS011;67614;47.406;18.784;2023-02-17T00:10:08;102.00;;;95.20;;
78338;SDS011;67614;47.406;18.784;2023-02-17T00:10:39;103.17;;;96.07;;
78338;SDS011;67614;47.406;18.784;2023-02-17T00:11:09;102.37;;;95.30;;
78338;SDS011;67614;47.406;18.784;2023-02-17T00:11:40;105.23;;;98.60;;
78338;SDS011;67614;47.406;18.784;2023-02-17T00:12:11;106.77;;;99.47;;
78338;SDS011;67614;47.406;18.784;2023-02-17T00:12:41;106.87;;;99.43;;
78338;SDS011;67614;47.406;18.784;2023-02-17T00:13:11;107.13;;;99.53;;
78338;SDS011;67614;47.406;18.784;2023-02-17T00:13:42;107.93;;;99.70;;
78338;SDS011;67614;47.406;18.784;2023-02-17T00:14:13;106.03;;;98.50;;
78338;SDS011;67614;47.406;18.784;2023-02-17T00:14:43;105.17;;;98.27;;
78338;SDS011;67614;47.406;18.784;2023-02-17T00:15:14;100.80;;;95.13;;
78338;SDS011;67614;47.406;18.784;2023-02-17T00:15:44;99.43;;;92.93;;
78338;SDS011;67614;47.406;18.784;2023-02-17T00:16:16;98.47;;;91.13;;
78338;SDS011;67614;47.406;18.784;2023-02-17T00:16:48;98.77;;;91.93;;
78338;SDS011;67614;47.406;18.784;2023-02-17T00:17:18;99.10;;;92.97;;
78338;SDS011;67614;47.406;18.784;2023-02-17T00:17:49;100.60;;;94.00;;
78338;SDS011;67614;47.406;18.784;2023-02-17T00:18:19;101.23;;;93.93;;
78338;SDS011;67614;47.406;18.784;2023-02-17T00:18:54;99.33;;;92.97;;
78338;SDS011;67614;47.406;18.784;2023-02-17T00:19:26;97.20;;;91.63;;
78338;SDS011;67614;47.406;18.784;2023-02-17T00:19:57;99.83;;;93.87;;
78338;SDS011;67614;47.406;18.784;2023-02-17T00:20:27;99.60;;;93.00;;
78338;SDS011;67614;47.406;18.784;2023-02-17T00:20:58;101.13;;;93.17;;
78338;SDS011;67614;47.406;18.784;2023-02-17T00:21:29;98.03;;;91.77;;
78338;SDS011;67614;47.406;18.784;2023-02-17T00:22:01;100.13;;;93.27;;
78338;SDS011;67614;47.406;18.784;2023-02-17T00:22:31;101.53;;;94.67;;
78338;SDS011;67614;47.406;18.784;2023-02-17T00:23:02;102.43;;;95.73;;
78338;SDS011;67614;47.406;18.784;2023-02-17T00:23:32;100.57;;;93.73;;
78338;SDS011;67614;47.406;18.784;2023-02-17T00:24:03;100.47;;;93.13;;
78338;SDS011;67614;47.406;18.784;2023-02-17T00:24:36;98.43;;;91.17;;
78338;SDS011;67614;47.406;18.784;2023-02-17T00:25:07;99.60;;;92.10;;
78338;SDS011;67614;47.406;18.784;2023-02-17T00:25:38;101.43;;;94.23;;
78338;SDS011;67614;47.406;18.784;2023-02-17T00:26:08;99.30;;;92.30;;
78338;SDS011;67614;47.406;18.784;2023-02-17T00:26:39;98.40;;;91.30;;
78338;SDS011;67614;47.406;18.784;2023-02-17T00:27:09;100.27;;;92.00;;
78338;SDS011;67614;47.406;18.784;2023-02-17T00:27:40;101.20;;;93.13;;
78338;SDS011;67614;47.406;18.784;2023-02-17T00:28:10;99.70;;;93.07;;
78338;SDS011;67614;47.406;18.784;2023-02-17T00:28:41;98.90;;;92.37;;
78338;SDS011;67614;47.406;18.784;2023-02-17T00:29:12;97.23;;;91.33;;
78338;SDS011;67614;47.406;18.784;2023-02-17T00:30:15;96.43;;;90.87;;
78338;SDS011;67614;47.406;18.784;2023-02-17T00:31:10;96.23;;;90.97;;
78338;SDS011;67614;47.406;18.784;2023-02-17T00:31:45;94.63;;;90.30;;
78338;SDS011;67614;47.406;18.784;2023-02-17T00:32:16;96.93;;;91.37;;
78338;SDS011;67614;47.406;18.784;2023-02-17T00:32:46;100.30;;;93.87;;
78338;SDS011;67614;47.406;18.784;2023-02-17T00:33:16;97.13;;;91.30;;
78338;SDS011;67614;47.406;18.784;2023-02-17T00:33:47;100.87;;;94.17;;
78338;SDS011;67614;47.406;18.784;2023-02-17T00:34:18;103.53;;;95.87;;
78338;SDS011;67614;47.406;18.784;2023-02-17T00:34:50;97.63;;;91.40;;
78338;SDS011;67614;47.406;18.784;2023-02-17T00:35:21;100.30;;;93.27;;
78338;SDS011;67614;47.406;18.784;2023-02-17T00:36:20;100.47;;;93.77;;
78338;SDS011;67614;47.406;18.784;2023-02-17T00:36:53;99.57;;;93.50;;
78338;SDS011;67614;47.406;18.784;2023-02-17T00:37:24;101.30;;;94.63;;
78338;SDS011;67614;47.406;18.784;2023-02-17T00:37:54;102.20;;;94.30;;
78338;SDS011;67614;47.406;18.784;2023-02-17T00:38:27;99.60;;;92.40;;
78338;SDS011;67614;47.406;18.784;2023-02-17T00:38:58;99.40;;;92.60;;
78338;SDS011;67614;47.406;18.784;2023-02-17T00:39:29;97.93;;;91.83;;
78338;SDS011;67614;47.406;18.784;2023-02-17T00:39:59;97.47;;;90.73;;
78338;SDS011;67614;47.406;18.784;2023-02-17T00:40:29;101.73;;;94.17;;
78338;SDS011;67614;47.406;18.784;2023-02-17T00:41:00;100.40;;;93.50;;
78338;SDS011;67614;47.406;18.784;2023-02-17T00:41:30;102.10;;;94.67;;
78338;SDS011;67614;47.406;18.784;2023-02-17T00:42:01;101.60;;;94.27;;
78338;SDS011;67614;47.406;18.784;2023-02-17T00:42:32;98.20;;;91.43;;
78338;SDS011;67614;47.406;18.784;2023-02-17T00:43:02;97.23;;;91.13;;
78338;SDS011;67614;47.406;18.784;2023-02-17T00:43:33;101.90;;;94.93;;
78338;SDS011;67614;47.406;18.784;2023-02-17T00:44:03;99.57;;;92.50;;
78338;SDS011;67614;47.406;18.784;2023-02-17T00:44:34;98.17;;;92.20;;
78338;SDS011;67614;47.406;18.784;2023-02-17T00:45:05;98.53;;;92.17;;
78338;SDS011;67614;47.406;18.784;2023-02-17T00:45:35;98.50;;;92.20;;
78338;SDS011;67614;47.406;18.784;2023-02-17T00:46:06;102.37;;;94.07;;
78338;SDS011;67614;47.406;18.784;2023-02-17T00:46:36;99.67;;;91.73;;
78338;SDS011;67614;47.406;18.784;2023-02-17T00:47:07;99.33;;;91.93;;
78338;SDS011;67614;47.406;18.784;2023-02-17T00:47:37;102.13;;;94.43;;
78338;SDS011;67614;47.406;18.784;2023-02-17T00:48:08;101.53;;;94.00;;
78338;SDS011;67614;47.406;18.784;2023-02-17T00:48:39;102.00;;;94.77;;
78338;SDS011;67614;47.406;18.784;2023-02-17T00:49:21;100.50;;;93.87;;
78338;SDS011;67614;47.406;18.784;2023-02-17T00:49:53;97.60;;;91.87;;
78338;SDS011;67614;47.406;18.784;2023-02-17T00:50:23;95.73;;;89.47;;
78338;SDS011;67614;47.406;18.784;2023-02-17T00:50:54;97.80;;;91.37;;
78338;SDS011;67614;47.406;18.784;2023-02-17T00:51:24;101.13;;;94.40;;
78338;SDS011;67614;47.406;18.784;2023-02-17T00:51:57;101.57;;;93.70;;
78338;SDS011;67614;47.406;18.784;2023-02-17T00:52:29;100.93;;;93.90;;
78338;SDS011;67614;47.406;18.784;2023-02-17T00:52:59;101.13;;;93.60;;
78338;SDS011;67614;47.406;18.784;2023-02-17T00:53:30;104.33;;;96.03;;
78338;SDS011;67614;47.406;18.784;2023-02-17T00:54:00;102.30;;;95.07;;
78338;SDS011;67614;47.406;18.784;2023-02-17T00:54:31;97.57;;;91.73;;
78338;SDS011;67614;47.406;18.784;2023-02-17T00:55:01;96.23;;;90.27;;
78338;SDS011;67614;47.406;18.784;2023-02-17T00:55:32;97.33;;;91.40;;
78338;SDS011;67614;47.406;18.784;2023-02-17T00:56:03;98.93;;;92.00;;
78338;SDS011;67614;47.406;18.784;2023-02-17T00:56:33;98.70;;;91.50;;
78338;SDS011;67614;47.406;18.784;2023-02-17T00:57:04;96.97;;;90.93;;
78338;SDS011;67614;47.406;18.784;2023-02-17T00:57:34;97.97;;;91.73;;
78338;SDS011;67614;47.406;18.784;2023-02-17T00:58:07;101.03;;;94.47;;
78338;SDS011;67614;47.406;18.784;2023-02-17T00:58:38;97.73;;;91.87;;
78338;SDS011;67614;47.406;18.784;2023-02-17T00:59:10;101.93;;;94.40;;
78338;SDS011;67614;47.406;18.784;2023-02-17T00:59:41;102.13;;;94.13;;
78338;SDS011;67614;47.406;18.784;2023-02-17T01:00:12;99.10;;;92.60;;
78338;SDS011;67614;47.406;18.784;2023-02-17T01:00:43;102.07;;;94.60;;
78338;SDS011;67614;47.406;18.784;2023-02-17T01:01:13;100.27;;;93.07;;
78338;SDS011;67614;47.406;18.784;2023-02-17T01:01:44;98.90;;;91.73;;
78338;SDS011;67614;47.406;18.784;2023-02-17T01:02:19;100.47;;;94.00;;
78338;SDS011;67614;47.406;18.784;2023-02-17T01:02:51;97.50;;;91.13;;
78338;SDS011;67614;47.406;18.784;2023-02-17T01:03:23;98.07;;;91.10;;
78338;SDS011;67614;47.406;18.784;2023-02-17T01:03:56;100.50;;;93.60;;
78338;SDS011;67614;47.406;18.784;2023-02-17T01:04:28;100.83;;;94.17;;
78338;SDS011;67614;47.406;18.784;2023-02-17T01:04:59;100.83;;;94.47;;
78338;SDS011;67614;47.406;18.784;2023-02-17T01:05:31;100.57;;;93.97;;
78338;SDS011;67614;47.406;18.784;2023-02-17T01:06:05;99.83;;;93.10;;
78338;SDS011;67614;47.406;18.784;2023-02-17T01:06:37;100.40;;;93.40;;
78338;SDS011;67614;47.406;18.784;2023-02-17T01:07:09;100.90;;;93.43;;
78338;SDS011;67614;47.406;18.784;2023-02-17T01:07:39;101.40;;;94.57;;
78338;SDS011;67614;47.406;18.784;2023-02-17T01:08:12;100.93;;;94.30;;
78338;SDS011;67614;47.406;18.784;2023-02-17T01:08:43;100.37;;;93.33;;
78338;SDS011;67614;47.406;18.784;2023-02-17T01:09:14;96.50;;;90.27;;
78338;SDS011;67614;47.406;18.784;2023-02-17T01:09:44;97.27;;;90.40;;
78338;SDS011;67614;47.406;18.784;2023-02-17T01:10:15;99.17;;;92.00;;
78338;SDS011;67614;47.406;18.784;2023-02-17T01:10:46;98.50;;;90.77;;
78338;SDS011;67614;47.406;18.784;2023-02-17T01:11:18;101.10;;;93.03;;
78338;SDS011;67614;47.406;18.784;2023-02-17T01:11:49;101.67;;;94.03;;
78338;SDS011;67614;47.406;18.784;2023-02-17T01:12:20;98.83;;;92.47;;
78338;SDS011;67614;47.406;18.784;2023-02-17T01:12:51;95.83;;;89.67;;
78338;SDS011;67614;47.406;18.784;2023-02-17T01:13:21;97.73;;;90.47;;
78338;SDS011;67614;47.406;18.784;2023-02-17T01:13:52;101.10;;;92.90;;
78338;SDS011;67614;47.406;18.784;2023-02-17T01:14:23;99.73;;;92.60;;
78338;SDS011;67614;47.406;18.784;2023-02-17T01:14:53;100.10;;;93.50;;
78338;SDS011;67614;47.406;18.784;2023-02-17T01:15:24;100.37;;;93.73;;
78338;SDS011;67614;47.406;18.784;2023-02-17T01:15:54;99.57;;;92.83;;
78338;SDS011;67614;47.406;18.784;2023-02-17T01:16:26;102.37;;;94.80;;
78338;SDS011;67614;47.406;18.784;2023-02-17T01:16:58;101.03;;;94.00;;
78338;SDS011;67614;47.406;18.784;2023-02-17T01:17:29;103.67;;;95.40;;
78338;SDS011;67614;47.406;18.784;2023-02-17T01:17:59;103.43;;;95.20;;
78338;SDS011;67614;47.406;18.784;2023-02-17T01:18:30;103.77;;;95.60;;
78338;SDS011;67614;47.406;18.784;2023-02-17T01:19:01;102.30;;;94.57;;
78338;SDS011;67614;47.406;18.784;2023-02-17T01:19:32;100.93;;;93.53;;
78338;SDS011;67614;47.406;18.784;2023-02-17T01:20:04;102.90;;;94.63;;
78338;SDS011;67614;47.406;18.784;2023-02-17T01:20:37;97.57;;;91.00;;
78338;SDS011;67614;47.406;18.784;2023-02-17T01:21:22;96.13;;;89.60;;
78338;SDS011;67614;47.406;18.784;2023-02-17T01:21:56;94.80;;;88.83;;
78338;SDS011;67614;47.406;18.784;2023-02-17T01:22:30;98.23;;;91.47;;
78338;SDS011;67614;47.406;18.784;2023-02-17T01:23:01;96.50;;;90.20;;
78338;SDS011;67614;47.406;18.784;2023-02-17T01:23:32;99.90;;;92.87;;
78338;SDS011;67614;47.406;18.784;2023-02-17T01:24:03;97.23;;;90.47;;
78338;SDS011;67614;47.406;18.784;2023-02-17T01:24:35;94.27;;;88.13;;
78338;SDS011;67614;47.406;18.784;2023-02-17T01:25:05;95.60;;;89.70;;
78338;SDS011;67614;47.406;18.784;2023-02-17T01:25:37;95.07;;;89.57;;
78338;SDS011;67614;47.406;18.784;2023-02-17T01:26:12;96.40;;;90.23;;
78338;SDS011;67614;47.406;18.784;2023-02-17T01:26:43;97.63;;;91.27;;
78338;SDS011;67614;47.406;18.784;2023-02-17T01:27:14;94.13;;;87.67;;
78338;SDS011;67614;47.406;18.784;2023-02-17T01:27:44;95.37;;;88.77;;
78338;SDS011;67614;47.406;18.784;2023-02-17T01:28:17;96.33;;;89.57;;
78338;SDS011;67614;47.406;18.784;2023-02-17T01:28:49;95.57;;;89.30;;
78338;SDS011;67614;47.406;18.784;2023-02-17T01:29:21;96.50;;;89.57;;
78338;SDS011;67614;47.406;18.784;2023-02-17T01:30:25;99.53;;;93.20;;
78338;SDS011;67614;47.406;18.784;2023-02-17T01:30:55;97.37;;;91.30;;
78338;SDS011;67614;47.406;18.784;2023-02-17T01:31:26;97.40;;;90.60;;
78338;SDS011;67614;47.406;18.784;2023-02-17T01:31:57;96.40;;;90.00;;
78338;SDS011;67614;47.406;18.784;2023-02-17T01:32:27;94.60;;;88.53;;
78338;SDS011;67614;47.406;18.784;2023-02-17T01:32:58;97.47;;;90.73;;
78338;SDS011;67614;47.406;18.784;2023-02-17T01:33:28;102.37;;;94.63;;
78338;SDS011;67614;47.406;18.784;2023-02-17T01:33:59;97.67;;;90.63;;
78338;SDS011;67614;47.406;18.784;2023-02-17T01:34:31;95.43;;;89.33;;
78338;SDS011;67614;47.406;18.784;2023-02-17T01:35:01;94.07;;;88.77;;
78338;SDS011;67614;47.406;18.784;2023-02-17T01:35:33;93.37;;;87.93;;
78338;SDS011;67614;47.406;18.784;2023-02-17T01:36:04;92.90;;;87.37;;
78338;SDS011;67614;47.406;18.784;2023-02-17T01:36:36;94.97;;;88.73;;
78338;SDS011;67614;47.406;18.784;2023-02-17T01:37:07;94.83;;;88.33;;
78338;SDS011;67614;47.406;18.784;2023-02-17T01:37:37;94.63;;;88.37;;
78338;SDS011;67614;47.406;18.784;2023-02-17T01:38:08;96.50;;;90.20;;
78338;SDS011;67614;47.406;18.784;2023-02-17T01:38:39;97.77;;;91.30;;
78338;SDS011;67614;47.406;18.784;2023-02-17T01:39:11;96.63;;;90.03;;
78338;SDS011;67614;47.406;18.784;2023-02-17T01:39:43;94.17;;;87.93;;
78338;SDS011;67614;47.406;18.784;2023-02-17T01:40:14;98.37;;;91.57;;
78338;SDS011;67614;47.406;18.784;2023-02-17T01:40:46;97.30;;;90.07;;
78338;SDS011;67614;47.406;18.784;2023-02-17T01:41:18;94.90;;;89.03;;
78338;SDS011;67614;47.406;18.784;2023-02-17T01:41:49;95.90;;;89.00;;
78338;SDS011;67614;47.406;18.784;2023-02-17T01:42:20;96.97;;;89.43;;
78338;SDS011;67614;47.406;18.784;2023-02-17T01:42:50;97.50;;;90.63;;
78338;SDS011;67614;47.406;18.784;2023-02-17T01:43:21;99.97;;;92.03;;
78338;SDS011;67614;47.406;18.784;2023-02-17T01:44:05;94.63;;;88.30;;
78338;SDS011;67614;47.406;18.784;2023-02-17T01:45:58;94.77;;;87.73;;
78338;SDS011;67614;47.406;18.784;2023-02-17T01:46:33;97.43;;;90.67;;
78338;SDS011;67614;47.406;18.784;2023-02-17T01:47:04;95.27;;;88.50;;
78338;SDS011;67614;47.406;18.784;2023-02-17T01:47:34;95.30;;;88.87;;
78338;SDS011;67614;47.406;18.784;2023-02-17T01:48:06;95.97;;;89.20;;
78338;SDS011;67614;47.406;18.784;2023-02-17T01:48:45;96.70;;;90.00;;
78338;SDS011;67614;47.406;18.784;2023-02-17T01:49:51;92.23;;;86.00;;
78338;SDS011;67614;47.406;18.784;2023-02-17T01:50:24;94.43;;;87.93;;
78338;SDS011;67614;47.406;18.784;2023-02-17T01:51:02;95.40;;;88.83;;
78338;SDS011;67614;47.406;18.784;2023-02-17T01:51:37;92.80;;;86.67;;
78338;SDS011;67614;47.406;18.784;2023-02-17T01:52:56;92.60;;;85.80;;
78338;SDS011;67614;47.406;18.784;2023-02-17T01:54:32;93.70;;;87.13;;
78338;SDS011;67614;47.406;18.784;2023-02-17T01:55:07;94.17;;;88.03;;
78338;SDS011;67614;47.406;18.784;2023-02-17T01:55:41;92.27;;;85.93;;
78338;SDS011;67614;47.406;18.784;2023-02-17T01:56:12;92.33;;;86.40;;
78338;SDS011;67614;47.406;18.784;2023-02-17T01:56:44;89.77;;;84.77;;
78338;SDS011;67614;47.406;18.784;2023-02-17T01:57:34;88.93;;;83.67;;
78338;SDS011;67614;47.406;18.784;2023-02-17T01:58:08;89.37;;;83.47;;
78338;SDS011;67614;47.406;18.784;2023-02-17T01:58:44;89.47;;;84.40;;
78338;SDS011;67614;47.406;18.784;2023-02-17T01:59:19;90.57;;;84.27;;
78338;SDS011;67614;47.406;18.784;2023-02-17T01:59:50;93.37;;;87.00;;
78338;SDS011;67614;47.406;18.784;2023-02-17T02:00:21;91.03;;;85.53;;
78338;SDS011;67614;47.406;18.784;2023-02-17T02:00:54;87.90;;;82.50;;
78338;SDS011;67614;47.406;18.784;2023-02-17T02:01:28;92.67;;;85.70;;
78338;SDS011;67614;47.406;18.784;2023-02-17T02:01:59;91.80;;;85.70;;
78338;SDS011;67614;47.406;18.784;2023-02-17T02:02:33;90.30;;;84.67;;
78338;SDS011;67614;47.406;18.784;2023-02-17T02:03:04;89.80;;;84.57;;
78338;SDS011;67614;47.406;18.784;2023-02-17T02:03:38;92.43;;;86.50;;
78338;SDS011;67614;47.406;18.784;2023-02-17T02:04:09;92.30;;;85.83;;
78338;SDS011;67614;47.406;18.784;2023-02-17T02:04:42;91.20;;;85.03;;
78338;SDS011;67614;47.406;18.784;2023-02-17T02:05:15;91.20;;;85.53;;
78338;SDS011;67614;47.406;18.784;2023-02-17T02:05:47;91.20;;;84.93;;
78338;SDS011;67614;47.406;18.784;2023-02-17T02:06:22;89.57;;;83.73;;
78338;SDS011;67614;47.406;18.784;2023-02-17T02:06:54;91.13;;;85.07;;
78338;SDS011;67614;47.406;18.784;2023-02-17T02:07:27;88.73;;;82.67;;
78338;SDS011;67614;47.406;18.784;2023-02-17T02:08:00;88.33;;;82.67;;
78338;SDS011;67614;47.406;18.784;2023-02-17T02:08:33;88.47;;;82.13;;
78338;SDS011;67614;47.406;18.784;2023-02-17T02:09:30;87.57;;;82.13;;
78338;SDS011;67614;47.406;18.784;2023-02-17T02:10:05;93.63;;;87.23;;
78338;SDS011;67614;47.406;18.784;2023-02-17T02:10:36;90.50;;;84.77;;
78338;SDS011;67614;47.406;18.784;2023-02-17T02:11:06;89.10;;;82.80;;
78338;SDS011;67614;47.406;18.784;2023-02-17T02:11:37;92.53;;;85.53;;
78338;SDS011;67614;47.406;18.784;2023-02-17T02:12:17;91.10;;;85.17;;
78338;SDS011;67614;47.406;18.784;2023-02-17T02:12:50;88.57;;;83.20;;
78338;SDS011;67614;47.406;18.784;2023-02-17T02:13:21;88.73;;;83.50;;
78338;SDS011;67614;47.406;18.784;2023-02-17T02:13:51;92.23;;;86.20;;
78338;SDS011;67614;47.406;18.784;2023-02-17T02:14:22;92.53;;;85.77;;
78338;SDS011;67614;47.406;18.784;2023-02-17T02:14:54;91.60;;;84.87;;
78338;SDS011;67614;47.406;18.784;2023-02-17T02:15:36;91.17;;;84.90;;
78338;SDS011;67614;47.406;18.784;2023-02-17T02:16:20;86.60;;;81.60;;
78338;SDS011;67614;47.406;18.784;2023-02-17T02:18:30;88.50;;;82.70;;
78338;SDS011;67614;47.406;18.784;2023-02-17T02:22:28;87.60;;;82.23;;
78338;SDS011;67614;47.406;18.784;2023-02-17T02:27:53;86.53;;;81.83;;
78338;SDS011;67614;47.406;18.784;2023-02-17T02:29:06;88.13;;;82.43;;
78338;SDS011;67614;47.406;18.784;2023-02-17T02:30:51;86.93;;;81.03;;
78338;SDS011;67614;47.406;18.784;2023-02-17T02:33:13;86.70;;;81.40;;
78338;SDS011;67614;47.406;18.784;2023-02-17T02:33:51;87.10;;;82.07;;
78338;SDS011;67614;47.406;18.784;2023-02-17T02:34:29;85.77;;;81.07;;
78338;SDS011;67614;47.406;18.784;2023-02-17T02:35:08;87.27;;;81.77;;
78338;SDS011;67614;47.406;18.784;2023-02-17T02:35:57;86.67;;;81.30;;
78338;SDS011;67614;47.406;18.784;2023-02-17T02:36:36;86.33;;;80.77;;
78338;SDS011;67614;47.406;18.784;2023-02-17T02:37:26;85.90;;;81.20;;
78338;SDS011;67614;47.406;18.784;2023-02-17T02:38:08;87.57;;;82.20;;
78338;SDS011;67614;47.406;18.784;2023-02-17T02:38:52;87.33;;;82.03;;
78338;SDS011;67614;47.406;18.784;2023-02-17T02:39:53;86.63;;;80.90;;
78338;SDS011;67614;47.406;18.784;2023-02-17T02:40:26;85.97;;;80.53;;
78338;SDS011;67614;47.406;18.784;2023-02-17T02:41:04;85.53;;;80.60;;
78338;SDS011;67614;47.406;18.784;2023-02-17T02:41:58;86.50;;;80.50;;
78338;SDS011;67614;47.406;18.784;2023-02-17T02:42:37;87.03;;;81.37;;
78338;SDS011;67614;47.406;18.784;2023-02-17T02:43:09;90.40;;;83.70;;
78338;SDS011;67614;47.406;18.784;2023-02-17T02:43:40;90.10;;;83.60;;
78338;SDS011;67614;47.406;18.784;2023-02-17T02:44:12;84.57;;;79.37;;
78338;SDS011;67614;47.406;18.784;2023-02-17T02:44:44;83.23;;;78.67;;
78338;SDS011;67614;47.406;18.784;2023-02-17T02:45:15;84.47;;;80.03;;
78338;SDS011;67614;47.406;18.784;2023-02-17T02:45:47;82.10;;;77.97;;
78338;SDS011;67614;47.406;18.784;2023-02-17T02:46:17;84.00;;;79.40;;
78338;SDS011;67614;47.406;18.784;2023-02-17T02:47:48;83.77;;;78.30;;
78338;SDS011;67614;47.406;18.784;2023-02-17T02:48:23;84.23;;;79.00;;
78338;SDS011;67614;47.406;18.784;2023-02-17T02:48:53;83.23;;;78.43;;
78338;SDS011;67614;47.406;18.784;2023-02-17T02:49:24;83.03;;;78.30;;
78338;SDS011;67614;47.406;18.784;2023-02-17T02:49:55;81.33;;;76.63;;
78338;SDS011;67614;47.406;18.784;2023-02-17T02:53:55;79.97;;;75.63;;
78338;SDS011;67614;47.406;18.784;2023-02-17T02:55:06;80.83;;;75.53;;
78338;SDS011;67614;47.406;18.784;2023-02-17T02:58:13;76.80;;;73.00;;
78338;SDS011;67614;47.406;18.784;2023-02-17T03:01:29;77.80;;;72.50;;
78338;SDS011;67614;47.406;18.784;2023-02-17T03:02:51;78.57;;;74.23;;
78338;SDS011;67614;47.406;18.784;2023-02-17T03:03:11;78.27;;;73.73;;
78338;SDS011;67614;47.406;18.784;2023-02-17T03:05:44;78.63;;;73.47;;
78338;SDS011;67614;47.406;18.784;2023-02-17T03:07:39;76.20;;;71.97;;
78338;SDS011;67614;47.406;18.784;2023-02-17T03:08:16;76.20;;;71.40;;
78338;SDS011;67614;47.406;18.784;2023-02-17T03:08:58;79.20;;;73.97;;
78338;SDS011;67614;47.406;18.784;2023-02-17T03:09:34;75.13;;;70.93;;
78338;SDS011;67614;47.406;18.784;2023-02-17T03:10:05;76.23;;;71.63;;
78338;SDS011;67614;47.406;18.784;2023-02-17T03:10:43;77.37;;;72.30;;
78338;SDS011;67614;47.406;18.784;2023-02-17T03:11:19;74.40;;;70.43;;
78338;SDS011;67614;47.406;18.784;2023-02-17T03:12:01;74.27;;;69.90;;
78338;SDS011;67614;47.406;18.784;2023-02-17T03:12:32;77.67;;;72.80;;
78338;SDS011;67614;47.406;18.784;2023-02-17T03:13:02;75.80;;;71.30;;
78338;SDS011;67614;47.406;18.784;2023-02-17T03:13:33;75.63;;;70.67;;
78338;SDS011;67614;47.406;18.784;2023-02-17T03:14:12;75.80;;;71.27;;
78338;SDS011;67614;47.406;18.784;2023-02-17T03:14:45;74.90;;;70.27;;
78338;SDS011;67614;47.406;18.784;2023-02-17T03:15:24;74.63;;;70.50;;
78338;SDS011;67614;47.406;18.784;2023-02-17T03:15:58;74.37;;;70.63;;
78338;SDS011;67614;47.406;18.784;2023-02-17T03:16:28;75.47;;;71.40;;
78338;SDS011;67614;47.406;18.784;2023-02-17T03:16:59;77.10;;;72.50;;
78338;SDS011;67614;47.406;18.784;2023-02-17T03:17:32;77.03;;;72.47;;
78338;SDS011;67614;47.406;18.784;2023-02-17T03:18:03;75.50;;;71.27;;
78338;SDS011;67614;47.406;18.784;2023-02-17T03:18:34;75.97;;;71.57;;
78338;SDS011;67614;47.406;18.784;2023-02-17T03:19:05;80.03;;;74.10;;
78338;SDS011;67614;47.406;18.784;2023-02-17T03:19:36;79.60;;;74.03;;
78338;SDS011;67614;47.406;18.784;2023-02-17T03:20:07;79.00;;;73.47;;
78338;SDS011;67614;47.406;18.784;2023-02-17T03:20:41;76.00;;;71.63;;
78338;SDS011;67614;47.406;18.784;2023-02-17T03:21:28;75.37;;;70.53;;
78338;SDS011;67614;47.406;18.784;2023-02-17T03:22:42;76.20;;;71.07;;
78338;SDS011;67614;47.406;18.784;2023-02-17T03:23:15;76.47;;;71.67;;
78338;SDS011;67614;47.406;18.784;2023-02-17T03:23:45;76.17;;;71.33;;
78338;SDS011;67614;47.406;18.784;2023-02-17T03:24:16;77.13;;;71.60;;
78338;SDS011;67614;47.406;18.784;2023-02-17T03:24:48;74.83;;;70.30;;
78338;SDS011;67614;47.406;18.784;2023-02-17T03:25:19;74.40;;;70.03;;
78338;SDS011;67614;47.406;18.784;2023-02-17T03:25:49;75.17;;;70.73;;
78338;SDS011;67614;47.406;18.784;2023-02-17T03:26:19;75.80;;;70.80;;
78338;SDS011;67614;47.406;18.784;2023-02-17T03:26:50;74.77;;;69.67;;
78338;SDS011;67614;47.406;18.784;2023-02-17T03:27:20;75.60;;;70.70;;
78338;SDS011;67614;47.406;18.784;2023-02-17T03:27:53;74.43;;;69.97;;
78338;SDS011;67614;47.406;18.784;2023-02-17T03:28:23;73.23;;;69.10;;
78338;SDS011;67614;47.406;18.784;2023-02-17T03:28:54;71.70;;;67.77;;
78338;SDS011;67614;47.406;18.784;2023-02-17T03:29:24;73.87;;;69.77;;
78338;SDS011;67614;47.406;18.784;2023-02-17T03:30:27;75.57;;;71.03;;
78338;SDS011;67614;47.406;18.784;2023-02-17T03:31:04;76.13;;;71.57;;
78338;SDS011;67614;47.406;18.784;2023-02-17T03:31:35;74.03;;;69.93;;
78338;SDS011;67614;47.406;18.784;2023-02-17T03:32:06;73.47;;;70.03;;
78338;SDS011;67614;47.406;18.784;2023-02-17T03:32:36;73.83;;;70.03;;
78338;SDS011;67614;47.406;18.784;2023-02-17T03:33:09;74.20;;;69.37;;
78338;SDS011;67614;47.406;18.784;2023-02-17T03:33:39;74.43;;;69.80;;
78338;SDS011;67614;47.406;18.784;2023-02-17T03:34:10;75.90;;;70.80;;
78338;SDS011;67614;47.406;18.784;2023-02-17T03:34:40;75.03;;;70.17;;
78338;SDS011;67614;47.406;18.784;2023-02-17T03:35:11;76.13;;;70.47;;
78338;SDS011;67614;47.406;18.784;2023-02-17T03:35:42;76.73;;;71.43;;
78338;SDS011;67614;47.406;18.784;2023-02-17T03:36:12;78.07;;;72.90;;
78338;SDS011;67614;47.406;18.784;2023-02-17T03:36:43;80.70;;;73.83;;
78338;SDS011;67614;47.406;18.784;2023-02-17T03:37:13;78.17;;;72.47;;
78338;SDS011;67614;47.406;18.784;2023-02-17T03:37:44;77.20;;;72.70;;
78338;SDS011;67614;47.406;18.784;2023-02-17T03:38:14;76.37;;;72.57;;
78338;SDS011;67614;47.406;18.784;2023-02-17T03:38:45;76.23;;;71.90;;
78338;SDS011;67614;47.406;18.784;2023-02-17T03:39:15;75.07;;;70.80;;
78338;SDS011;67614;47.406;18.784;2023-02-17T03:39:46;77.03;;;72.13;;
78338;SDS011;67614;47.406;18.784;2023-02-17T03:40:16;76.03;;;70.83;;
78338;SDS011;67614;47.406;18.784;2023-02-17T03:40:47;78.73;;;72.70;;
78338;SDS011;67614;47.406;18.784;2023-02-17T03:41:17;78.13;;;72.37;;
78338;SDS011;67614;47.406;18.784;2023-02-17T03:41:48;76.87;;;71.67;;